Time;durP1;ratioP1;P1;durP2;ratioP2;P2;SDS_P1;SDS_P2;PMS_P1;PMS_P2;Temp;Humidity;BMP_temperature;BMP_pressure;BME280_temperature;BME280_humidity;BME280_pressure;Samples;Min_cycle;Max_cycle;Signal;HPM_P1;HPM_P2
2023/03/31 06:37:49;;;;;;;18.70;4.57;;;;;;;;;;4881837;29;20066;-91
2023/03/31 06:40:18;;;;;;;10.07;3.38;;;;;;;;;;4868374;29;20017;-93
2023/03/31 06:42:45;;;;;;;16.35;3.85;;;;;;;;;;4865168;29;20033;-92
2023/03/31 06:45:11;;;;;;;17.95;3.63;;;;;;;;;;4865214;29;20117;-92
2023/03/31 06:47:37;;;;;;;28.08;4.65;;;;;;;;;;4862620;29;20135;-93
2023/03/31 06:50:07;;;;;;;15.98;3.53;;;;;;;;;;4843934;29;20448;-92
2023/03/31 06:52:33;;;;;;;11.27;3.67;;;;;;;;;;4866218;29;20464;-92
2023/03/31 06:55:14;;;;;;;15.55;4.03;;;;;;;;;;4870998;29;20032;-93
2023/03/31 06:57:40;;;;;;;14.77;3.60;;;;;;;;;;4879541;29;20025;-92
2023/03/31 07:00:09;;;;;;;15.45;3.92;;;;;;;;;;4865131;29;20041;-92
2023/03/31 07:02:35;;;;;;;22.35;3.28;;;;;;;;;;4865897;29;20029;-93
2023/03/31 07:05:02;;;;;;;12.13;3.70;;;;;;;;;;4854658;29;20033;-92
2023/03/31 07:07:31;;;;;;;11.20;3.17;;;;;;;;;;4850663;29;20467;-93
2023/03/31 07:09:57;;;;;;;10.98;3.17;;;;;;;;;;4887156;29;20025;-93
2023/03/31 07:12:24;;;;;;;14.93;3.42;;;;;;;;;;4865932;29;20038;-94
2023/03/31 07:15:03;;;;;;;10.45;3.28;;;;;;;;;;4856667;29;20037;-95
2023/03/31 07:17:30;;;;;;;9.13;3.40;;;;;;;;;;4876137;29;20040;-94
2023/03/31 07:19:56;;;;;;;16.63;4.03;;;;;;;;;;4862961;29;20060;-94
2023/03/31 07:22:22;;;;;;;15.25;4.03;;;;;;;;;;4853466;29;20029;-93
2023/03/31 07:24:48;;;;;;;13.82;3.72;;;;;;;;;;4853174;29;20048;-94
2023/03/31 07:27:15;;;;;;;15.05;3.00;;;;;;;;;;4853692;29;20497;-93
2023/03/31 07:29:41;;;;;;;15.70;3.55;;;;;;;;;;4869700;29;20185;-94
2023/03/31 07:32:07;;;;;;;9.65;3.35;;;;;;;;;;4855959;29;20144;-94
2023/03/31 07:34:35;;;;;;;17.95;3.67;;;;;;;;;;4874541;29;20211;-94
2023/03/31 07:37:06;;;;;;;19.30;3.60;;;;;;;;;;4891317;29;20060;-93
2023/03/31 07:39:32;;;;;;;6.85;3.03;;;;;;;;;;4889053;29;20039;-93
2023/03/31 07:41:59;;;;;;;13.48;3.45;;;;;;;;;;4888546;29;20382;-94
2023/03/31 07:44:27;;;;;;;13.52;3.53;;;;;;;;;;4885866;29;20047;-93
2023/03/31 07:46:53;;;;;;;12.88;3.70;;;;;;;;;;4904876;29;20039;-94
2023/03/31 07:49:19;;;;;;;12.27;3.33;;;;;;;;;;4904419;29;20473;-93
2023/03/31 07:51:46;;;;;;;9.55;3.33;;;;;;;;;;4901264;29;20044;-94
2023/03/31 07:54:12;;;;;;;17.30;3.63;;;;;;;;;;4900906;29;20025;-93
2023/03/31 07:56:38;;;;;;;14.10;3.42;;;;;;;;;;4904033;29;20178;-94
2023/03/31 07:59:04;;;;;;;20.15;3.50;;;;;;;;;;4884274;29;20337;-94
2023/03/31 08:01:30;;;;;;;11.80;3.65;;;;;;;;;;4882814;29;20493;-94
2023/03/31 08:03:59;;;;;;;14.73;3.67;;;;;;;;;;4903129;29;20024;-95
2023/03/31 08:06:43;;;;;;;17.60;4.45;;;;;;;;;;4904918;29;20067;-94
2023/03/31 08:09:12;;;;;;;9.38;3.65;;;;;;;;;;4891051;29;20083;-93
2023/03/31 08:11:39;;;;;;;9.70;3.53;;;;;;;;;;4902115;29;20036;-94
2023/03/31 08:14:05;;;;;;;9.63;3.53;;;;;;;;;;4904211;29;20029;-93
2023/03/31 08:16:31;;;;;;;12.45;4.03;;;;;;;;;;4889416;29;20032;-94
2023/03/31 08:18:57;;;;;;;8.55;2.90;;;;;;;;;;4889167;29;20028;-93
2023/03/31 08:21:23;;;;;;;9.65;3.00;;;;;;;;;;4898957;29;20028;-96
2023/03/31 08:23:52;;;;;;;9.30;2.78;;;;;;;;;;4906827;29;20089;-96
2023/03/31 08:26:28;;;;;;;12.35;3.30;;;;;;;;;;4906632;29;20020;-96
2023/03/31 08:28:57;;;;;;;10.30;2.97;;;;;;;;;;4905350;29;20038;-96
2023/03/31 08:31:24;;;;;;;19.15;2.58;;;;;;;;;;4905811;29;20028;-96
2023/03/31 08:33:50;;;;;;;7.78;2.40;;;;;;;;;;4908074;29;20067;-96
2023/03/31 08:36:17;;;;;;;8.38;2.15;;;;;;;;;;4888316;29;20116;-96
2023/03/31 08:38:48;;;;;;;9.75;2.42;;;;;;;;;;4888835;29;20028;-96
2023/03/31 08:41:27;;;;;;;12.18;2.72;;;;;;;;;;4906747;29;20095;-95
2023/03/31 08:43:55;;;;;;;10.10;2.50;;;;;;;;;;4901989;29;20039;-96
2023/03/31 08:46:32;;;;;;;7.95;2.10;;;;;;;;;;4903810;29;20043;-95
2023/03/31 08:49:01;;;;;;;15.60;2.97;;;;;;;;;;4915001;29;20043;-95
2023/03/31 08:51:29;;;;;;;11.23;2.67;;;;;;;;;;4889701;29;20036;-95
2023/03/31 08:54:03;;;;;;;12.95;2.92;;;;;;;;;;4902232;29;20056;-96
2023/03/31 08:56:31;;;;;;;7.32;2.50;;;;;;;;;;4905974;29;20172;-96
2023/03/31 08:59:01;;;;;;;11.75;1.80;;;;;;;;;;4905029;29;20020;-96
2023/03/31 09:01:28;;;;;;;17.60;3.25;;;;;;;;;;4891543;29;20040;-96
2023/03/31 09:04:03;;;;;;;10.40;2.90;;;;;;;;;;4903740;29;20067;-96
2023/03/31 09:06:37;;;;;;;9.38;3.15;;;;;;;;;;4906406;29;20117;-96
2023/03/31 09:09:07;;;;;;;9.52;3.35;;;;;;;;;;4907250;29;20091;-96
2023/03/31 09:11:38;;;;;;;8.90;3.50;;;;;;;;;;4904863;29;20052;-95
2023/03/31 09:14:16;;;;;;;10.93;3.25;;;;;;;;;;4907698;29;20035;-96
2023/03/31 09:16:54;;;;;;;13.32;4.32;;;;;;;;;;4904555;29;20055;-95
2023/03/31 09:19:32;;;;;;;11.25;3.38;;;;;;;;;;4906494;29;20047;-95
2023/03/31 09:22:00;;;;;;;9.52;3.28;;;;;;;;;;4907911;29;20397;-96
2023/03/31 09:24:32;;;;;;;14.63;4.07;;;;;;;;;;4891730;29;20032;-96
2023/03/31 09:27:05;;;;;;;7.45;2.60;;;;;;;;;;4930736;28;20048;-96
2023/03/31 09:29:38;;;;;;;12.80;3.80;;;;;;;;;;4934173;28;20020;-95
2023/03/31 09:32:16;;;;;;;17.13;5.05;;;;;;;;;;4921246;28;20068;-95
2023/03/31 09:34:42;;;;;;;10.75;3.53;;;;;;;;;;4920157;28;20024;-96
2023/03/31 09:37:10;;;;;;;8.48;3.22;;;;;;;;;;4918008;29;20056;-95
2023/03/31 09:39:39;;;;;;;17.63;4.25;;;;;;;;;;4910798;29;20051;-95
2023/03/31 09:42:10;;;;;;;10.88;3.83;;;;;;;;;;4903279;29;20066;-96
2023/03/31 09:44:42;;;;;;;9.82;3.20;;;;;;;;;;4929655;28;20088;-95
2023/03/31 09:47:13;;;;;;;20.42;3.60;;;;;;;;;;4916431;29;20048;-95
2023/03/31 09:49:40;;;;;;;15.32;3.88;;;;;;;;;;4902415;29;20035;-96
2023/03/31 09:52:12;;;;;;;10.63;3.60;;;;;;;;;;4916021;28;20063;-96
2023/03/31 09:54:43;;;;;;;19.65;4.05;;;;;;;;;;4893944;29;20042;-95
2023/03/31 09:57:28;;;;;;;12.73;3.22;;;;;;;;;;4895852;29;20032;-96
2023/03/31 10:00:04;;;;;;;9.90;3.75;;;;;;;;;;4912881;29;20021;-96
2023/03/31 10:02:40;;;;;;;11.50;3.65;;;;;;;;;;4909336;29;20060;-95
2023/03/31 10:05:13;;;;;;;6.73;2.50;;;;;;;;;;4908220;29;20044;-96
2023/03/31 10:07:43;;;;;;;16.83;4.32;;;;;;;;;;4906787;29;20276;-96
2023/03/31 10:10:17;;;;;;;11.40;3.40;;;;;;;;;;4892101;29;20033;-96
2023/03/31 10:12:50;;;;;;;17.10;3.05;;;;;;;;;;4904846;29;20088;-96
2023/03/31 10:15:20;;;;;;;9.93;4.60;;;;;;;;;;4903436;29;20036;-96
2023/03/31 10:17:47;;;;;;;10.63;3.75;;;;;;;;;;4909058;29;20056;-96
2023/03/31 10:20:33;;;;;;;7.05;3.15;;;;;;;;;;4891094;29;20048;-93
2023/03/31 10:23:04;;;;;;;12.02;3.30;;;;;;;;;;4891113;29;20025;-94
2023/03/31 10:25:33;;;;;;;15.13;3.72;;;;;;;;;;4904434;29;20043;-95
2023/03/31 10:28:01;;;;;;;9.07;3.17;;;;;;;;;;4890956;29;20037;-95
2023/03/31 10:30:36;;;;;;;9.45;2.72;;;;;;;;;;4894087;29;20024;-96
2023/03/31 10:33:13;;;;;;;16.00;3.58;;;;;;;;;;4898649;29;20055;-96
2023/03/31 10:35:39;;;;;;;12.85;3.03;;;;;;;;;;4896306;29;20036;-95
2023/03/31 10:38:10;;;;;;;10.88;3.03;;;;;;;;;;4884674;29;20037;-96
2023/03/31 10:40:36;;;;;;;17.75;2.97;;;;;;;;;;4905789;29;20039;-96
2023/03/31 10:43:10;;;;;;;7.68;2.80;;;;;;;;;;4896874;29;20077;-96
2023/03/31 10:45:37;;;;;;;10.68;4.50;;;;;;;;;;4889684;29;20558;-96
2023/03/31 10:48:03;;;;;;;8.02;1.80;;;;;;;;;;4889028;29;20243;-96
2023/03/31 10:50:33;;;;;;;9.63;2.92;;;;;;;;;;4904593;29;20037;-96
2023/03/31 10:53:04;;;;;;;12.52;3.30;;;;;;;;;;4889480;29;20039;-96
2023/03/31 10:55:35;;;;;;;9.13;2.88;;;;;;;;;;4881468;29;20033;-96
2023/03/31 10:58:20;;;;;;;9.63;3.25;;;;;;;;;;4893993;29;20351;-96
2023/03/31 11:01:02;;;;;;;13.70;2.53;;;;;;;;;;4882198;29;20035;-96
2023/03/31 11:03:50;;;;;;;14.70;3.30;;;;;;;;;;4888407;29;20032;-95
2023/03/31 11:06:42;;;;;;;17.48;3.35;;;;;;;;;;4904639;29;20029;-95
2023/03/31 11:12:34;;;;;;;12.63;2.60;;;;;;;;;;4892435;29;20052;-96
2023/03/31 11:15:00;;;;;;;;;;;;;;;;;;4895598;29;20490;-96
2023/03/31 11:17:35;;;;;;;6.63;2.22;;;;;;;;;;4904548;29;19922;-96
2023/03/31 11:20:11;;;;;;;5.32;2.42;;;;;;;;;;4896329;29;20513;-96
2023/03/31 11:22:54;;;;;;;6.10;2.63;;;;;;;;;;4901268;29;20096;-96
2023/03/31 11:25:27;;;;;;;6.40;1.73;;;;;;;;;;4899185;29;20100;-96
2023/03/31 11:28:14;;;;;;;12.35;2.83;;;;;;;;;;4893446;29;20028;-96
2023/03/31 11:30:59;;;;;;;5.05;2.35;;;;;;;;;;4901073;29;20043;-96
2023/03/31 11:33:52;;;;;;;10.45;2.83;;;;;;;;;;4896252;29;20037;-96
2023/03/31 11:36:37;;;;;;;5.88;2.78;;;;;;;;;;4872932;29;20044;-96
2023/03/31 11:39:11;;;;;;;11.15;2.88;;;;;;;;;;4894581;29;20029;-96
2023/03/31 11:41:51;;;;;;;7.95;3.10;;;;;;;;;;4887969;29;20037;-96
2023/03/31 11:44:19;;;;;;;11.65;2.85;;;;;;;;;;4916322;29;20051;-96
2023/03/31 11:47:25;;;;;;;7.68;2.22;;;;;;;;;;4908352;29;20047;-96
2023/03/31 11:49:51;;;;;;;;;;;;;;;;;;4907913;29;20093;-96
2023/03/31 11:52:25;;;;;;;7.47;3.72;;;;;;;;;;4903175;29;19915;-96
2023/03/31 11:55:14;;;;;;;12.52;2.72;;;;;;;;;;4909183;29;20025;-96
2023/03/31 11:57:44;;;;;;;7.35;2.85;;;;;;;;;;4897248;29;20024;-96
2023/03/31 12:00:24;;;;;;;10.25;2.28;;;;;;;;;;4912346;29;20028;-96
2023/03/31 12:03:07;;;;;;;7.15;2.78;;;;;;;;;;4909870;29;20028;-96
2023/03/31 12:05:35;;;;;;;10.57;2.22;;;;;;;;;;4907103;29;20053;-96
2023/03/31 12:08:22;;;;;;;11.95;2.58;;;;;;;;;;4888459;29;20624;-96
2023/03/31 12:10:56;;;;;;;8.95;1.98;;;;;;;;;;4895894;29;20028;-96
2023/03/31 12:13:31;;;;;;;9.10;1.83;;;;;;;;;;4905501;29;20036;-96
2023/03/31 12:16:28;;;;;;;8.30;2.10;;;;;;;;;;4898315;29;20060;-95
2023/03/31 12:18:57;;;;;;;3.78;1.65;;;;;;;;;;4907439;29;20112;-96
2023/03/31 12:21:41;;;;;;;6.72;1.75;;;;;;;;;;4904889;29;20037;-96
2023/03/31 12:24:11;;;;;;;8.88;2.13;;;;;;;;;;4885324;29;20113;-96
2023/03/31 12:26:52;;;;;;;11.55;2.20;;;;;;;;;;4909510;29;20027;-96
2023/03/31 12:29:25;;;;;;;8.07;2.63;;;;;;;;;;4891061;29;20028;-96
2023/03/31 12:31:56;;;;;;;6.68;2.40;;;;;;;;;;4902646;29;20071;-96
2023/03/31 12:34:24;;;;;;;10.25;2.70;;;;;;;;;;4886158;29;20296;-96
2023/03/31 12:37:34;;;;;;;11.15;3.47;;;;;;;;;;4914224;29;20069;-96
2023/03/31 12:40:04;;;;;;;11.70;2.85;;;;;;;;;;4905668;29;20052;-96
2023/03/31 12:42:47;;;;;;;8.20;2.40;;;;;;;;;;4905125;29;20039;-96
2023/03/31 12:45:25;;;;;;;9.23;2.60;;;;;;;;;;4889584;29;20033;-96
2023/03/31 12:48:04;;;;;;;16.42;2.95;;;;;;;;;;4903605;29;20048;-96
2023/03/31 12:50:43;;;;;;;7.50;2.42;;;;;;;;;;4904536;29;20516;-96
2023/03/31 12:53:47;;;;;;;;;;;;;;;;;;;;;
2023/03/31 12:56:22;;;;;;;13.02;2.55;;;;;;;;;;4913921;29;20029;-96
2023/03/31 12:58:49;;;;;;;11.57;2.67;;;;;;;;;;4896929;29;20041;-96
2023/03/31 13:01:17;;;;;;;17.35;3.50;;;;;;;;;;4894523;29;20039;-96
2023/03/31 13:04:11;;;;;;;13.43;2.88;;;;;;;;;;4897951;29;20029;-96
2023/03/31 13:06:58;;;;;;;7.75;2.67;;;;;;;;;;4912946;29;20518;-97
2023/03/31 13:09:30;;;;;;;13.88;2.53;;;;;;;;;;4901180;29;20033;-96
2023/03/31 13:12:26;;;;;;;13.13;2.60;;;;;;;;;;4920221;29;20012;-96
2023/03/31 13:14:58;;;;;;;7.05;2.10;;;;;;;;;;4906196;29;20052;-96
